Schedule Details


Flight Number: CTN481
Departure: Kastrup (EKCH) at 11:20
Arrival: Franjo Tudman (LDZA) at 13:25
Route: BALOX?M736?SALLO?UM44?KOGIM?UM725?HDO?M725?VOZ?Z21?PISAM?DCT?PUBEG?DCT?PETOV

Weather Information
EKCH 112220Z AUTO 35016KT 9999 BKN081/// BKN100/// 14/10 Q1004 NOSIG
LDZA 112230Z 25014KT CAVOK 19/10 Q1007 BECMG 24008KT
Schedule Frequency

Route Map